createdAt,value
2022-08-09T01:08:06.321Z,41.48
2022-08-09T01:13:31.142Z,40.62
2022-08-09T01:18:47.695Z,40.98
2022-08-09T01:24:10.643Z,40.63
2022-08-09T01:29:15.329Z,40.66
2022-08-09T01:34:21.504Z,40.86
2022-08-09T01:39:28.422Z,41.35
2022-08-09T01:44:33.421Z,40.86
2022-08-09T01:49:39.106Z,41.04
2022-08-09T01:54:52.719Z,41.96
2022-08-09T02:00:08.828Z,41.19
2022-08-09T02:05:38.096Z,41.35
2022-08-09T02:10:50.689Z,41.71
2022-08-09T17:27:49.149Z,30.67
2022-08-09T17:33:01.006Z,31.05
2022-08-09T17:38:13.745Z,31.26
2022-08-09T17:43:34.588Z,31.19
2022-08-09T17:48:51.935Z,31.79
2022-08-09T17:53:55.911Z,31.81
2022-08-09T17:59:03.395Z,32.10
2022-08-09T18:04:11.973Z,32.13
2022-08-09T18:09:16.209Z,32.46
2022-08-09T18:14:19.469Z,32.83
2022-08-09T18:20:55.623Z,32.89
2022-08-09T18:24:46.357Z,33.16
2022-08-09T18:30:35.443Z,33.18
2022-08-09T18:35:11.321Z,33.47
2022-08-09T18:40:13.931Z,33.66
2022-08-09T18:45:21.759Z,33.97
2022-08-09T18:50:43.145Z,34.15
2022-08-09T18:55:57.058Z,34.24
2022-08-09T19:01:07.821Z,34.35
2022-08-09T19:06:14.535Z,34.69
2022-08-09T19:11:17.189Z,34.88
2022-08-09T19:16:23.658Z,35.05
2022-08-09T19:21:51.863Z,35.30
2022-08-09T19:26:54.842Z,35.19
2022-08-09T19:31:59.853Z,35.51
2022-08-09T19:37:03.062Z,35.68
2022-08-09T19:42:05.738Z,35.74
2022-08-09T19:47:11.281Z,35.69
2022-08-09T19:52:13.731Z,35.88
2022-08-09T19:57:16.499Z,36.04
2022-08-09T20:04:23.809Z,36.39
2022-08-09T20:07:59.323Z,36.58
2022-08-09T20:13:04.814Z,36.75
2022-08-09T20:18:08.389Z,37.02
2022-08-09T20:23:12.393Z,37.25
2022-08-09T20:28:28.116Z,37.18
2022-08-09T20:33:41.126Z,37.56
2022-08-09T20:39:29.192Z,37.49
2022-08-09T20:44:10.102Z,37.90
2022-08-09T20:49:14.156Z,37.99
2022-08-09T20:54:18.763Z,37.69
2022-08-09T21:00:20.025Z,38.25
2022-08-09T21:05:51.340Z,38.34
2022-08-09T21:10:08.600Z,38.31
2022-08-09T21:15:12.877Z,38.25
2022-08-09T21:20:25.258Z,38.55
2022-08-09T21:25:56.035Z,38.86
2022-08-09T21:31:16.704Z,39.04
2022-08-09T21:36:28.901Z,39.73
2022-08-09T21:42:04.739Z,39.69
